Punta Gialla — IWUC — position and weather

sailwx.info

Track history (hours):
 
Tides and Currents Weather Stations Pressure Air Temp Water Temp Dewpoint Dewpoint Depression Visibility Wind Speed Wind Dir Waves Ship Positions

Punta Gialla

Last reported at 2016-May-05 00:33 UTC. Time now 2016-May-05 00:57 UTC.
Position N 44°24' E 008°54'.

Length 52 m; draft 1.8 m.

Type: Tanker. MMSI: 247077500.

Date/timePositionNaut miles runAvg speedWind from/ knotsBaromVisibWave heightAir tempDewpointWater temp
2016-May-05 00:33N 44°24' E 008°54'0 0.1
2016-May-04 23:34N 44°24' E 008°54'8 7.8
2016-May-04 22:33N 44°18' E 009°02'8 8.2
2016-May-04 21:33N 44°12' E 009°09'9 8.6
2016-May-04 20:33N 44°08' E 009°20'9 8.6
2016-May-04 19:33N 44°04' E 009°30'8 8.4
2016-May-04 18:33N 44°00' E 009°41'8 7.8
2016-May-04 17:33N 43°59' E 009°52'7 7.0
2016-May-04 16:33N 44°06' E 009°50'0 0.0
2016-May-04 15:33N 44°06' E 009°50'0 0.0
2016-May-04 14:33N 44°06' E 009°50'0 0.0
2016-May-04 13:33N 44°06' E 009°50'0 0.1
2016-May-04 12:33N 44°06' E 009°50'6 6.4
2016-May-04 11:33N 44°01' E 009°56'7 6.9
2016-May-04 10:33N 43°60' E 009°46'8 7.7
2016-May-04 09:33N 44°02' E 009°36'7 7.5
2016-May-04 08:33N 44°06' E 009°27'8 7.7
2016-May-04 07:33N 44°10' E 009°18'7 7.3
2016-May-04 06:33N 44°14' E 009°09'7 7.5
2016-May-04 05:33N 44°18' E 009°01'7 7.2
2016-May-04 04:33N 44°24' E 008°55'0 0.5
2016-May-04 03:33N 44°24' E 008°54'0 0.0
2016-May-04 02:33N 44°24' E 008°54'0 0.0
2016-May-04 01:33N 44°24' E 008°54'0 0.0
2016-May-04 00:33N 44°24' E 008°54'0 0.0
2016-May-03 23:33N 44°24' E 008°54'0 0.0
2016-May-03 22:33N 44°24' E 008°54'0 0.0
2016-May-03 21:33N 44°24' E 008°54'0 0.5
2016-May-03 20:33N 44°25' E 008°55'0 0.0
2016-May-03 19:33N 44°25' E 008°55'0 0.0
2016-May-03 18:33N 44°25' E 008°55'1 0.6
2016-May-03 17:33N 44°24' E 008°55'1 0.6
2016-May-03 16:33N 44°24' E 008°54'0 0.0
2016-May-03 15:33N 44°24' E 008°54'0 0.0
2016-May-03 14:33N 44°24' E 008°54'0 0.0
2016-May-03 13:33N 44°24' E 008°54'0 0.0
2016-May-03 12:33N 44°24' E 008°54'0 0.0
2016-May-03 11:33N 44°24' E 008°54'0 0.0
2016-May-03 10:33N 44°24' E 008°54'0 0.0
2016-May-03 09:33N 44°24' E 008°54'0 0.0
2016-May-03 08:33N 44°24' E 008°54'0 0.0
2016-May-03 07:33N 44°24' E 008°54'0 0.0
2016-May-03 06:33N 44°24' E 008°54'0 0.0
2016-May-03 05:33N 44°24' E 008°54'0 0.0
2016-May-03 04:33N 44°24' E 008°54'0 0.0
2016-May-03 03:33N 44°24' E 008°54'0 0.0
2016-May-03 02:33N 44°24' E 008°54'0 0.0
2016-May-03 01:33N 44°24' E 008°54'0 0.0
2016-May-03 00:33N 44°24' E 008°54'0 0.0
2016-May-02 23:33N 44°24' E 008°54'0 0.0
2016-May-02 22:33N 44°24' E 008°54'0 0.0
2016-May-02 21:33N 44°24' E 008°54'0 0.0
2016-May-02 20:33N 44°24' E 008°54'0 0.0
2016-May-02 19:33N 44°24' E 008°54'0 0.0
2016-May-02 18:33N 44°24' E 008°54'0 0.0
2016-May-02 17:33N 44°24' E 008°54'0 0.3
2016-May-02 16:33N 44°24' E 008°54'0 0.0
2016-May-02 15:33N 44°24' E 008°54'0 0.0
2016-May-02 14:33N 44°24' E 008°54'0 0.0
2016-May-02 13:33N 44°24' E 008°54'0 0.3
2016-May-02 12:33N 44°24' E 008°54'0 0.0
2016-May-02 11:33N 44°24' E 008°54'0 0.0
2016-May-02 10:33N 44°24' E 008°54'0 0.0
2016-May-02 09:33N 44°24' E 008°54'0 0.0
2016-May-02 08:33N 44°24' E 008°54'0 0.0
2016-May-02 07:33N 44°24' E 008°54'0 0.0
2016-May-02 06:33N 44°24' E 008°54'0 0.0
2016-May-02 05:33N 44°24' E 008°54'0 0.0
2016-Apr-30 14:33N 44°24' E 008°54'0 0.4
2016-Apr-30 13:33N 44°25' E 008°55'0 0.0
2016-Apr-30 12:33N 44°25' E 008°55'0 0.0
2016-Apr-30 11:33N 44°25' E 008°55'0 0.2
2016-Apr-30 10:33N 44°25' E 008°55'0 0.0
2016-Apr-30 09:33N 44°25' E 008°55'0 0.0
2016-Apr-30 08:33N 44°25' E 008°55'0 0.0
2016-Apr-30 07:33N 44°25' E 008°55'1 0.8
2016-Apr-30 06:33N 44°24' E 008°55'0 0.4
2016-Apr-30 05:33N 44°24' E 008°54'0 0.0
2016-Apr-29 16:33N 44°24' E 008°54'0 0.0
2016-Apr-29 15:33N 44°24' E 008°54'0 0.0
2016-Apr-29 14:33N 44°24' E 008°54'0 0.0
2016-Apr-29 13:33N 44°24' E 008°54'0 0.0
2016-Apr-29 12:33N 44°24' E 008°54'0 0.0
2016-Apr-29 11:33N 44°24' E 008°54'0 0.5
2016-Apr-29 10:33N 44°24' E 008°55'0 0.0
2016-Apr-29 09:33N 44°24' E 008°55'0 0.0
2016-Apr-29 08:33N 44°24' E 008°55'0 0.0
2016-Apr-29 07:33N 44°24' E 008°55'0 0.5
2016-Apr-29 06:33N 44°24' E 008°54'0 0.0
2016-Apr-28 16:33N 44°24' E 008°54'0 0.0
2016-Apr-28 15:33N 44°24' E 008°54'0 0.0
2016-Apr-28 14:33N 44°24' E 008°54'0 0.0
2016-Apr-28 13:33N 44°24' E 008°54'0 0.0
2016-Apr-28 12:33N 44°24' E 008°54'0 0.0
2016-Apr-28 11:33N 44°24' E 008°54'0 0.0
2016-Apr-28 10:33N 44°24' E 008°54'0 0.0
2016-Apr-28 09:33N 44°24' E 008°54'0 0.0
2016-Apr-28 08:33N 44°24' E 008°54'0 0.0
2016-Apr-27 20:13N 44°24' E 008°54'1 1.2
2016-Apr-27 19:33N 44°24' E 008°53'0 0.2
2016-Apr-27 18:33N 44°24' E 008°53'0 0.0
2016-Apr-27 17:33N 44°24' E 008°53'0 0.4
2016-Apr-27 16:34N 44°24' E 008°54'0 0.0
2016-Apr-27 15:33N 44°24' E 008°54'0 0.0
2016-Apr-27 14:33N 44°24' E 008°54'1 0.9
2016-Apr-27 13:33N 44°24' E 008°55'0 0.0
2016-Apr-27 12:33N 44°24' E 008°55'0 0.0
2016-Apr-27 11:33N 44°24' E 008°55'0 0.0
2016-Apr-27 10:33N 44°24' E 008°55'0 0.5
2016-Apr-27 09:33N 44°24' E 008°54'0 0.0
2016-Apr-27 08:33N 44°24' E 008°54'0 0.0
2016-Apr-26 20:30N 44°24' E 008°54'0 0.4
2016-Apr-26 19:33N 44°24' E 008°55'1 0.7
2016-Apr-26 18:33N 44°25' E 008°55'0 0.0
2016-Apr-26 17:33N 44°25' E 008°55'0 0.0
2016-Apr-26 16:34N 44°25' E 008°55'0 0.5
2016-Apr-26 15:34N 44°24' E 008°54'0 0.0
2016-Apr-26 14:34N 44°24' E 008°54'0 0.1
2016-Apr-26 13:33N 44°24' E 008°54'0 0.0
2016-Apr-26 12:33N 44°24' E 008°54'0 0.0
2016-Apr-26 11:34N 44°24' E 008°54'0 0.0
2016-Apr-26 10:33N 44°24' E 008°54'0 0.0
2016-Apr-26 09:33N 44°24' E 008°54'0 0.0
2016-Apr-26 08:33N 44°24' E 008°54'0 0.0
2016-Apr-25 23:15N 44°24' E 008°54'0 0.0
2016-Apr-25 22:33N 44°24' E 008°54'0 0.3
2016-Apr-25 21:33N 44°24' E 008°55'0 0.0
2016-Apr-25 20:33N 44°24' E 008°55'0 0.0
2016-Apr-25 19:33N 44°24' E 008°55'0 0.0
2016-Apr-25 18:33N 44°24' E 008°55'0 0.4
2016-Apr-25 17:33N 44°24' E 008°54'0 0.0
2016-Apr-25 16:33N 44°24' E 008°54'0 0.0
2016-Apr-25 15:33N 44°24' E 008°54'0 0.0
2016-Apr-25 14:33N 44°24' E 008°54'0 0.0
2016-Apr-25 13:33N 44°24' E 008°54'0 0.0
2016-Apr-25 12:33N 44°24' E 008°54'0 0.0
2016-Apr-25 11:33N 44°24' E 008°54'0 0.0
2016-Apr-25 10:33N 44°24' E 008°54'0 0.0
2016-Apr-25 09:33N 44°24' E 008°54'0 0.0
2016-Apr-25 08:33N 44°24' E 008°54'0 0.0
2016-Apr-25 07:33N 44°24' E 008°54'0 0.0
2016-Apr-25 06:33N 44°24' E 008°54'0 0.0
2016-Apr-25 05:33N 44°24' E 008°54'0 0.0
2016-Apr-25 04:33N 44°24' E 008°54'0 0.0
2016-Apr-25 03:33N 44°24' E 008°54'0 0.0
2016-Apr-25 02:33N 44°24' E 008°54'0 0.0
2016-Apr-25 01:33N 44°24' E 008°54'0 0.0
2016-Apr-25 00:33N 44°24' E 008°54'  
Track history (hours):
 
Tides and Currents Weather Stations Pressure Air Temp Water Temp Dewpoint Dewpoint Depression Visibility Wind Speed Wind Dir Waves Ship Positions

Punta Gialla

Last reported at 2016-May-05 00:33 UTC. Time now 2016-May-05 00:57 UTC.
Position N 44°24' E 008°54'.

Length 52 m; draft 1.8 m.

Type: Tanker. MMSI: 247077500.

Date/timePositionNaut miles runAvg speedWind from/ knotsBaromVisibWave heightAir tempDewpointWater temp
2016-May-05 00:33N 44°24' E 008°54'0 0.1
2016-May-04 23:34N 44°24' E 008°54'8 7.8
2016-May-04 22:33N 44°18' E 009°02'8 8.2
2016-May-04 21:33N 44°12' E 009°09'9 8.6
2016-May-04 20:33N 44°08' E 009°20'9 8.6
2016-May-04 19:33N 44°04' E 009°30'8 8.4
2016-May-04 18:33N 44°00' E 009°41'8 7.8
2016-May-04 17:33N 43°59' E 009°52'7 7.0
2016-May-04 16:33N 44°06' E 009°50'0 0.0
2016-May-04 15:33N 44°06' E 009°50'0 0.0
2016-May-04 14:33N 44°06' E 009°50'0 0.0
2016-May-04 13:33N 44°06' E 009°50'0 0.1
2016-May-04 12:33N 44°06' E 009°50'6 6.4
2016-May-04 11:33N 44°01' E 009°56'7 6.9
2016-May-04 10:33N 43°60' E 009°46'8 7.7
2016-May-04 09:33N 44°02' E 009°36'7 7.5
2016-May-04 08:33N 44°06' E 009°27'8 7.7
2016-May-04 07:33N 44°10' E 009°18'7 7.3
2016-May-04 06:33N 44°14' E 009°09'7 7.5
2016-May-04 05:33N 44°18' E 009°01'7 7.2
2016-May-04 04:33N 44°24' E 008°55'0 0.5
2016-May-04 03:33N 44°24' E 008°54'0 0.0
2016-May-04 02:33N 44°24' E 008°54'0 0.0
2016-May-04 01:33N 44°24' E 008°54'0 0.0
2016-May-04 00:33N 44°24' E 008°54'0 0.0
2016-May-03 23:33N 44°24' E 008°54'0 0.0
2016-May-03 22:33N 44°24' E 008°54'0 0.0
2016-May-03 21:33N 44°24' E 008°54'0 0.5
2016-May-03 20:33N 44°25' E 008°55'0 0.0
2016-May-03 19:33N 44°25' E 008°55'0 0.0
2016-May-03 18:33N 44°25' E 008°55'1 0.6
2016-May-03 17:33N 44°24' E 008°55'1 0.6
2016-May-03 16:33N 44°24' E 008°54'0 0.0
2016-May-03 15:33N 44°24' E 008°54'0 0.0
2016-May-03 14:33N 44°24' E 008°54'0 0.0
2016-May-03 13:33N 44°24' E 008°54'0 0.0
2016-May-03 12:33N 44°24' E 008°54'0 0.0
2016-May-03 11:33N 44°24' E 008°54'0 0.0
2016-May-03 10:33N 44°24' E 008°54'0 0.0
2016-May-03 09:33N 44°24' E 008°54'0 0.0
2016-May-03 08:33N 44°24' E 008°54'0 0.0
2016-May-03 07:33N 44°24' E 008°54'0 0.0
2016-May-03 06:33N 44°24' E 008°54'0 0.0
2016-May-03 05:33N 44°24' E 008°54'0 0.0
2016-May-03 04:33N 44°24' E 008°54'0 0.0
2016-May-03 03:33N 44°24' E 008°54'0 0.0
2016-May-03 02:33N 44°24' E 008°54'0 0.0
2016-May-03 01:33N 44°24' E 008°54'0 0.0
2016-May-03 00:33N 44°24' E 008°54'0 0.0
2016-May-02 23:33N 44°24' E 008°54'0 0.0
2016-May-02 22:33N 44°24' E 008°54'0 0.0
2016-May-02 21:33N 44°24' E 008°54'0 0.0
2016-May-02 20:33N 44°24' E 008°54'0 0.0
2016-May-02 19:33N 44°24' E 008°54'0 0.0
2016-May-02 18:33N 44°24' E 008°54'0 0.0
2016-May-02 17:33N 44°24' E 008°54'0 0.3
2016-May-02 16:33N 44°24' E 008°54'0 0.0
2016-May-02 15:33N 44°24' E 008°54'0 0.0
2016-May-02 14:33N 44°24' E 008°54'0 0.0
2016-May-02 13:33N 44°24' E 008°54'0 0.3
2016-May-02 12:33N 44°24' E 008°54'0 0.0
2016-May-02 11:33N 44°24' E 008°54'0 0.0
2016-May-02 10:33N 44°24' E 008°54'0 0.0
2016-May-02 09:33N 44°24' E 008°54'0 0.0
2016-May-02 08:33N 44°24' E 008°54'0 0.0
2016-May-02 07:33N 44°24' E 008°54'0 0.0
2016-May-02 06:33N 44°24' E 008°54'0 0.0
2016-May-02 05:33N 44°24' E 008°54'0 0.0
2016-Apr-30 14:33N 44°24' E 008°54'0 0.4
2016-Apr-30 13:33N 44°25' E 008°55'0 0.0
2016-Apr-30 12:33N 44°25' E 008°55'0 0.0
2016-Apr-30 11:33N 44°25' E 008°55'0 0.2
2016-Apr-30 10:33N 44°25' E 008°55'0 0.0
2016-Apr-30 09:33N 44°25' E 008°55'0 0.0
2016-Apr-30 08:33N 44°25' E 008°55'0 0.0
2016-Apr-30 07:33N 44°25' E 008°55'1 0.8
2016-Apr-30 06:33N 44°24' E 008°55'0 0.4
2016-Apr-30 05:33N 44°24' E 008°54'0 0.0
2016-Apr-29 16:33N 44°24' E 008°54'0 0.0
2016-Apr-29 15:33N 44°24' E 008°54'0 0.0
2016-Apr-29 14:33N 44°24' E 008°54'0 0.0
2016-Apr-29 13:33N 44°24' E 008°54'0 0.0
2016-Apr-29 12:33N 44°24' E 008°54'0 0.0
2016-Apr-29 11:33N 44°24' E 008°54'0 0.5
2016-Apr-29 10:33N 44°24' E 008°55'0 0.0
2016-Apr-29 09:33N 44°24' E 008°55'0 0.0
2016-Apr-29 08:33N 44°24' E 008°55'0 0.0
2016-Apr-29 07:33N 44°24' E 008°55'0 0.5
2016-Apr-29 06:33N 44°24' E 008°54'0 0.0
2016-Apr-28 16:33N 44°24' E 008°54'0 0.0
2016-Apr-28 15:33N 44°24' E 008°54'0 0.0
2016-Apr-28 14:33N 44°24' E 008°54'0 0.0
2016-Apr-28 13:33N 44°24' E 008°54'0 0.0
2016-Apr-28 12:33N 44°24' E 008°54'0 0.0
2016-Apr-28 11:33N 44°24' E 008°54'0 0.0
2016-Apr-28 10:33N 44°24' E 008°54'0 0.0
2016-Apr-28 09:33N 44°24' E 008°54'0 0.0
2016-Apr-28 08:33N 44°24' E 008°54'0 0.0
2016-Apr-27 20:13N 44°24' E 008°54'1 1.2
2016-Apr-27 19:33N 44°24' E 008°53'0 0.2
2016-Apr-27 18:33N 44°24' E 008°53'0 0.0
2016-Apr-27 17:33N 44°24' E 008°53'0 0.4
2016-Apr-27 16:34N 44°24' E 008°54'0 0.0
2016-Apr-27 15:33N 44°24' E 008°54'0 0.0
2016-Apr-27 14:33N 44°24' E 008°54'1 0.9
2016-Apr-27 13:33N 44°24' E 008°55'0 0.0
2016-Apr-27 12:33N 44°24' E 008°55'0 0.0
2016-Apr-27 11:33N 44°24' E 008°55'0 0.0
2016-Apr-27 10:33N 44°24' E 008°55'0 0.5
2016-Apr-27 09:33N 44°24' E 008°54'0 0.0
2016-Apr-27 08:33N 44°24' E 008°54'0 0.0
2016-Apr-26 20:30N 44°24' E 008°54'0 0.4
2016-Apr-26 19:33N 44°24' E 008°55'1 0.7
2016-Apr-26 18:33N 44°25' E 008°55'0 0.0
2016-Apr-26 17:33N 44°25' E 008°55'0 0.0
2016-Apr-26 16:34N 44°25' E 008°55'0 0.5
2016-Apr-26 15:34N 44°24' E 008°54'0 0.0
2016-Apr-26 14:34N 44°24' E 008°54'0 0.1
2016-Apr-26 13:33N 44°24' E 008°54'0 0.0
2016-Apr-26 12:33N 44°24' E 008°54'0 0.0
2016-Apr-26 11:34N 44°24' E 008°54'0 0.0
2016-Apr-26 10:33N 44°24' E 008°54'0 0.0
2016-Apr-26 09:33N 44°24' E 008°54'0 0.0
2016-Apr-26 08:33N 44°24' E 008°54'0 0.0
2016-Apr-25 23:15N 44°24' E 008°54'0 0.0
2016-Apr-25 22:33N 44°24' E 008°54'0 0.3
2016-Apr-25 21:33N 44°24' E 008°55'0 0.0
2016-Apr-25 20:33N 44°24' E 008°55'0 0.0
2016-Apr-25 19:33N 44°24' E 008°55'0 0.0
2016-Apr-25 18:33N 44°24' E 008°55'0 0.4
2016-Apr-25 17:33N 44°24' E 008°54'0 0.0
2016-Apr-25 16:33N 44°24' E 008°54'0 0.0
2016-Apr-25 15:33N 44°24' E 008°54'0 0.0
2016-Apr-25 14:33N 44°24' E 008°54'0 0.0
2016-Apr-25 13:33N 44°24' E 008°54'0 0.0
2016-Apr-25 12:33N 44°24' E 008°54'0 0.0
2016-Apr-25 11:33N 44°24' E 008°54'0 0.0
2016-Apr-25 10:33N 44°24' E 008°54'0 0.0
2016-Apr-25 09:33N 44°24' E 008°54'0 0.0
2016-Apr-25 08:33N 44°24' E 008°54'0 0.0
2016-Apr-25 07:33N 44°24' E 008°54'0 0.0
2016-Apr-25 06:33N 44°24' E 008°54'0 0.0
2016-Apr-25 05:33N 44°24' E 008°54'0 0.0
2016-Apr-25 04:33N 44°24' E 008°54'0 0.0
2016-Apr-25 03:33N 44°24' E 008°54'0 0.0
2016-Apr-25 02:33N 44°24' E 008°54'0 0.0
2016-Apr-25 01:33N 44°24' E 008°54'0 0.0
2016-Apr-25 00:33N 44°24' E 008°54'  

Dump ship's entire track history